createdAt,value
2022-10-23T00:01:32.015Z,1.80
2022-10-23T00:04:05.461Z,2.00
2022-10-23T00:06:33.137Z,2.30
2022-10-23T00:09:00.002Z,1.60
2022-10-23T00:11:29.451Z,1.40
2022-10-23T00:13:59.453Z,1.80
2022-10-23T00:16:27.326Z,2.20
2022-10-23T00:18:53.929Z,2.50
2022-10-23T00:21:20.883Z,1.20
2022-10-23T00:23:47.513Z,1.30
2022-10-23T00:26:15.189Z,1.40
2022-10-23T00:28:43.420Z,2.40
2022-10-23T00:31:10.576Z,1.90
2022-10-23T00:33:40.704Z,2.70
2022-10-23T00:36:10.346Z,1.90
2022-10-23T00:38:37.134Z,2.20
2022-10-23T00:41:05.050Z,2.40
2022-10-23T00:43:33.041Z,3.00
2022-10-23T00:45:59.985Z,3.30
2022-10-23T00:48:28.103Z,4.00
2022-10-23T00:50:55.376Z,4.50
2022-10-23T00:53:22.565Z,3.30
2022-10-23T00:55:53.284Z,2.60
2022-10-23T00:58:20.636Z,4.10
2022-10-23T01:00:56.266Z,4.90
2022-10-23T01:03:26.849Z,4.30
2022-10-23T01:05:57.269Z,4.20
2022-10-23T01:08:45.212Z,6.60
2022-10-23T01:11:17.608Z,4.80
2022-10-23T01:13:49.140Z,3.40
2022-10-23T01:16:26.427Z,3.90
2022-10-23T01:18:59.578Z,3.30
2022-10-23T01:21:41.412Z,5.20
2022-10-23T01:24:23.269Z,3.60
2022-10-23T01:27:18.964Z,4.20
2022-10-23T01:29:51.291Z,5.70
2022-10-23T01:32:34.772Z,4.20
2022-10-23T01:35:15.837Z,4.10
2022-10-23T01:37:47.171Z,2.80
2022-10-23T01:40:23.856Z,4.70
2022-10-23T01:42:56.099Z,3.00
2022-10-23T01:45:55.499Z,3.20
2022-10-23T01:48:28.299Z,2.50
2022-10-23T01:50:58.605Z,2.50
2022-10-23T01:53:30.543Z,2.30
2022-10-23T01:56:00.979Z,2.50
2022-10-23T01:58:30.149Z,2.20
2022-10-23T02:01:00.816Z,2.70
2022-10-23T02:03:30.921Z,2.50
2022-10-23T02:05:57.663Z,2.40
2022-10-23T02:08:27.044Z,3.30
2022-10-23T02:11:04.256Z,2.30
2022-10-23T02:13:43.160Z,2.80
2022-10-23T02:16:21.330Z,3.70
2022-10-23T02:19:06.395Z,3.20
2022-10-23T02:21:54.260Z,3.20
2022-10-23T02:24:31.054Z,3.60
2022-10-23T02:27:02.096Z,3.20
2022-10-23T02:30:01.163Z,2.80
2022-10-23T02:32:28.580Z,2.40
2022-10-23T02:34:55.577Z,2.80
2022-10-23T02:39:54.489Z,2.40
2022-10-23T02:42:39.156Z,2.60
2022-10-23T02:45:11.674Z,2.00
2022-10-23T02:48:01.159Z,2.80
2022-10-23T02:50:45.784Z,3.20
2022-10-23T02:53:21.407Z,2.80
2022-10-23T02:55:57.734Z,4.20
2022-10-23T02:58:48.698Z,3.50
2022-10-23T03:01:18.855Z,3.20
2022-10-23T03:03:52.078Z,4.60
2022-10-23T03:06:19.934Z,4.10
2022-10-23T03:08:54.135Z,3.50
2022-10-23T03:11:20.657Z,4.00
2022-10-23T03:13:48.494Z,3.40
2022-10-23T03:16:15.349Z,4.50
2022-10-23T03:18:48.176Z,3.90
2022-10-23T03:21:14.761Z,3.90
2022-10-23T03:23:41.330Z,4.10
2022-10-23T03:26:08.084Z,3.60
2022-10-23T03:28:38.603Z,4.90
2022-10-23T03:31:05.577Z,3.70
2022-10-23T03:33:32.841Z,4.40
2022-10-23T03:36:07.079Z,4.10
2022-10-23T03:38:35.156Z,4.80
2022-10-23T03:41:02.173Z,5.10
2022-10-23T03:43:28.741Z,6.20
2022-10-23T03:45:56.709Z,4.70
2022-10-23T03:48:25.122Z,5.30
2022-10-23T03:50:51.882Z,5.80
2022-10-23T03:53:18.477Z,5.60
2022-10-23T03:55:45.095Z,4.70
2022-10-23T03:58:11.897Z,5.10
2022-10-23T04:00:38.557Z,6.10
2022-10-23T04:03:05.149Z,7.10
2022-10-23T04:05:31.678Z,5.80
2022-10-23T04:07:58.347Z,6.70
2022-10-23T04:10:25.048Z,7.00
2022-10-23T04:12:51.739Z,5.90
2022-10-23T04:15:18.221Z,4.70
2022-10-23T04:17:46.017Z,5.50
2022-10-23T04:20:12.955Z,5.90
2022-10-23T04:22:39.564Z,6.50
2022-10-23T04:25:06.540Z,5.90
2022-10-23T04:27:34.334Z,6.40
2022-10-23T04:30:02.996Z,6.10
2022-10-23T04:32:29.597Z,6.30
2022-10-23T04:34:56.251Z,6.40
2022-10-23T04:37:22.953Z,5.90
2022-10-23T04:39:49.508Z,6.70
2022-10-23T04:42:16.145Z,6.00
2022-10-23T04:44:42.716Z,6.50
2022-10-23T04:47:09.369Z,5.10
2022-10-23T04:49:45.024Z,6.60
2022-10-23T04:52:20.365Z,7.00
2022-10-23T04:55:03.668Z,6.60
2022-10-23T04:57:42.791Z,8.30
2022-10-23T05:00:13.715Z,7.20
2022-10-23T05:02:52.548Z,6.70
2022-10-23T05:05:20.338Z,4.80
2022-10-23T05:08:22.858Z,5.30
2022-10-23T05:11:09.644Z,5.60
2022-10-23T05:13:41.606Z,6.10
2022-10-23T05:16:08.558Z,5.50
2022-10-23T05:18:39.935Z,4.70
2022-10-23T05:21:12.430Z,4.90
2022-10-23T05:23:43.115Z,5.50
2022-10-23T05:26:09.809Z,4.60
2022-10-23T05:28:37.580Z,4.90
2022-10-23T05:31:05.704Z,5.50
2022-10-23T05:33:34.386Z,6.70
2022-10-23T05:36:02.020Z,6.30
2022-10-23T05:38:33.100Z,8.10
2022-10-23T05:41:04.466Z,5.70
2022-10-23T05:43:31.446Z,6.50
2022-10-23T05:46:09.262Z,9.70
2022-10-23T05:48:53.365Z,5.50
2022-10-23T05:51:25.966Z,5.00
2022-10-23T05:54:00.048Z,4.70
2022-10-23T05:56:32.176Z,4.10
2022-10-23T05:59:07.683Z,4.50
2022-10-23T06:02:03.874Z,4.10
2022-10-23T06:04:40.062Z,4.60
2022-10-23T06:07:06.658Z,4.20
2022-10-23T06:09:33.599Z,3.70
2022-10-23T06:12:02.074Z,3.10
2022-10-23T06:14:30.255Z,3.40
2022-10-23T06:16:57.637Z,4.30
2022-10-23T06:19:24.521Z,4.10
2022-10-23T06:21:53.920Z,6.10
2022-10-23T06:24:24.842Z,5.70
2022-10-23T06:27:12.907Z,4.80
2022-10-23T06:29:43.489Z,5.00
2022-10-23T06:32:10.154Z,4.30
2022-10-23T06:34:37.488Z,4.00
2022-10-23T06:37:04.184Z,5.30
2022-10-23T06:39:39.802Z,4.60
2022-10-23T06:42:13.578Z,4.60
2022-10-23T06:44:56.125Z,4.00
2022-10-23T06:47:43.278Z,3.80
2022-10-23T06:50:33.176Z,3.40
2022-10-23T06:53:04.949Z,3.20
2022-10-23T06:55:32.687Z,3.10
2022-10-23T06:57:59.361Z,3.30
2022-10-23T07:00:26.064Z,3.80
2022-10-23T07:02:53.324Z,2.60
2022-10-23T07:05:19.999Z,3.50
2022-10-23T07:07:46.651Z,4.20
2022-10-23T07:10:16.463Z,4.20
2022-10-23T07:12:48.180Z,5.50
2022-10-23T07:15:34.963Z,5.20
2022-10-23T07:18:02.568Z,5.30
2022-10-23T07:20:38.847Z,4.80
2022-10-23T07:23:05.522Z,6.40
2022-10-23T07:25:36.167Z,5.50
2022-10-23T07:28:04.085Z,4.70
2022-10-23T07:30:31.097Z,12.90
2022-10-23T07:32:58.798Z,4.70
2022-10-23T07:35:37.016Z,4.70
2022-10-23T07:38:08.887Z,4.60
2022-10-23T07:40:39.243Z,5.60
2022-10-23T07:43:06.659Z,3.90
2022-10-23T07:45:33.636Z,3.90
2022-10-23T07:48:04.256Z,4.00
2022-10-23T07:50:40.014Z,3.90
2022-10-23T07:53:10.554Z,8.00
2022-10-23T07:55:42.237Z,6.00
2022-10-23T07:58:12.448Z,4.30
2022-10-23T08:00:44.818Z,5.50
2022-10-23T08:03:16.257Z,4.10
2022-10-23T08:05:43.484Z,4.20
2022-10-23T08:08:10.190Z,3.40
2022-10-23T08:10:37.947Z,4.80
2022-10-23T08:13:05.790Z,3.20
2022-10-23T08:15:58.779Z,2.80
2022-10-23T08:18:48.896Z,4.10
2022-10-23T08:21:16.494Z,3.50
2022-10-23T08:23:44.534Z,3.80
2022-10-23T08:26:12.098Z,3.30
2022-10-23T08:28:38.829Z,4.90
2022-10-23T08:31:13.486Z,3.00
2022-10-23T08:33:40.466Z,3.40
2022-10-23T08:36:20.417Z,3.60
2022-10-23T08:38:48.071Z,4.10
2022-10-23T08:41:33.206Z,3.60
2022-10-23T08:44:32.292Z,3.20
2022-10-23T08:47:07.870Z,3.20
2022-10-23T08:49:52.874Z,3.10
2022-10-23T08:52:46.251Z,3.70
2022-10-23T08:55:22.793Z,2.30
2022-10-23T08:57:53.301Z,2.90
2022-10-23T09:00:19.935Z,5.70
2022-10-23T09:02:51.820Z,4.00
2022-10-23T09:05:36.316Z,4.70
2022-10-23T09:08:40.930Z,3.40
2022-10-23T09:11:22.421Z,2.30
2022-10-23T09:14:04.976Z,2.60
2022-10-23T09:16:53.764Z,3.00
2022-10-23T09:19:27.469Z,3.10
2022-10-23T09:21:55.700Z,3.50
2022-10-23T09:24:24.902Z,3.30
2022-10-23T09:26:53.305Z,2.60
2022-10-23T09:29:28.577Z,2.00
2022-10-23T09:31:58.777Z,2.30
2022-10-23T09:34:28.705Z,2.30
2022-10-23T09:36:59.128Z,3.10
2022-10-23T09:39:30.628Z,2.60
2022-10-23T09:41:58.406Z,30.30
2022-10-23T09:44:27.759Z,5.20
2022-10-23T09:46:59.901Z,42.10
2022-10-23T09:49:31.353Z,14.20
2022-10-23T09:52:19.235Z,3.00
2022-10-23T09:54:46.892Z,3.20
2022-10-23T09:57:13.697Z,3.00
2022-10-23T09:59:41.346Z,4.70
2022-10-23T10:02:26.797Z,3.80
2022-10-23T10:05:28.607Z,9.80
2022-10-23T10:08:19.453Z,7.80
2022-10-23T10:10:57.775Z,4.90
2022-10-23T10:13:33.229Z,4.10
2022-10-23T10:16:12.445Z,2.70
2022-10-23T10:19:07.608Z,8.60
2022-10-23T10:21:54.480Z,2.80
2022-10-23T10:24:28.488Z,2.30
2022-10-23T10:27:09.686Z,5.30
2022-10-23T10:29:49.651Z,3.80
2022-10-23T10:32:31.567Z,2.20
2022-10-23T10:35:18.459Z,2.20
2022-10-23T10:38:12.613Z,2.00
2022-10-23T10:40:55.686Z,6.30
2022-10-23T10:44:09.815Z,3.00
2022-10-23T10:46:45.963Z,4.00
2022-10-23T10:49:26.869Z,3.10
2022-10-23T10:52:19.987Z,4.20
2022-10-23T10:54:54.963Z,3.70
2022-10-23T10:57:42.265Z,3.60
2022-10-23T11:00:19.641Z,2.80
2022-10-23T11:02:52.888Z,6.00
2022-10-23T11:05:29.660Z,4.60
2022-10-23T11:08:01.496Z,7.50
2022-10-23T11:10:29.435Z,6.60
2022-10-23T11:12:56.601Z,4.90
2022-10-23T11:15:38.554Z,3.40
2022-10-23T11:18:15.979Z,4.10
2022-10-23T11:20:58.080Z,2.80
2022-10-23T11:23:40.821Z,5.00
2022-10-23T11:26:10.216Z,4.30
2022-10-23T11:29:02.693Z,4.30
2022-10-23T11:31:51.902Z,6.00
2022-10-23T11:34:27.295Z,8.30
2022-10-23T11:36:57.683Z,4.80
2022-10-23T11:39:30.772Z,5.00
2022-10-23T11:42:04.033Z,5.10
2022-10-23T11:44:57.030Z,3.00
2022-10-23T11:47:36.304Z,3.10
2022-10-23T11:50:06.134Z,2.40
2022-10-23T11:52:45.731Z,2.60
2022-10-23T11:55:29.424Z,2.70
2022-10-23T12:00:30.279Z,2.80
2022-10-23T12:02:59.066Z,3.40
2022-10-23T12:05:40.914Z,3.10
2022-10-23T12:08:25.047Z,3.30
2022-10-23T12:10:55.231Z,3.60
2022-10-23T12:13:28.309Z,3.40
2022-10-23T12:15:58.437Z,3.10
2022-10-23T12:18:28.040Z,2.70
2022-10-23T12:20:57.717Z,3.70
2022-10-23T12:23:30.056Z,2.90
2022-10-23T12:26:45.137Z,2.40
2022-10-23T12:29:17.624Z,3.50
2022-10-23T12:31:59.932Z,3.20
2022-10-23T12:34:49.502Z,2.80
2022-10-23T12:37:40.687Z,2.70
2022-10-23T12:40:09.110Z,3.90
2022-10-23T12:42:37.369Z,2.50
2022-10-23T12:45:17.597Z,3.20
2022-10-23T12:47:46.045Z,2.50
2022-10-23T12:50:27.514Z,3.10
2022-10-23T12:53:03.011Z,3.40
2022-10-23T12:55:51.101Z,2.50
2022-10-23T12:58:23.391Z,2.10
2022-10-23T13:00:57.337Z,2.20
2022-10-23T13:03:25.881Z,3.40
2022-10-23T13:08:22.740Z,4.90
2022-10-23T13:11:15.284Z,3.60
2022-10-23T13:13:42.021Z,3.70
2022-10-23T13:16:23.216Z,2.30
2022-10-23T13:18:50.428Z,2.00
2022-10-23T13:21:21.349Z,2.50
2022-10-23T13:23:48.997Z,2.60
2022-10-23T13:26:32.439Z,2.50
2022-10-23T13:29:02.944Z,2.50
2022-10-23T13:31:34.972Z,2.60
2022-10-23T13:34:01.860Z,2.70
2022-10-23T13:36:30.536Z,2.90
2022-10-23T13:38:59.363Z,2.50
2022-10-23T13:41:28.637Z,5.30
2022-10-23T13:43:55.383Z,6.50
2022-10-23T13:46:25.128Z,2.20
2022-10-23T13:48:51.953Z,3.60
2022-10-23T13:51:22.581Z,4.20
2022-10-23T13:53:50.273Z,2.70
2022-10-23T13:56:19.193Z,4.10
2022-10-23T13:58:45.927Z,4.70
2022-10-23T14:01:27.060Z,4.00
2022-10-23T14:03:55.905Z,4.30
2022-10-23T14:06:23.029Z,3.50
2022-10-23T14:08:49.698Z,5.80
2022-10-23T14:11:18.411Z,5.20
2022-10-23T14:16:15.210Z,5.30
2022-10-23T14:18:42.520Z,6.60
2022-10-23T14:21:11.977Z,6.60
2022-10-23T14:23:38.616Z,7.00
2022-10-23T14:26:08.472Z,7.50
2022-10-23T14:28:35.503Z,6.00
2022-10-23T14:31:07.028Z,5.60
2022-10-23T14:33:33.756Z,5.40
2022-10-23T14:36:00.373Z,6.40
2022-10-23T14:38:27.229Z,4.80
2022-10-23T14:40:53.972Z,5.40
2022-10-23T14:43:22.114Z,4.90
2022-10-23T14:45:49.122Z,3.50
2022-10-23T14:48:16.264Z,4.20
2022-10-23T14:50:46.229Z,6.20
2022-10-23T14:53:13.403Z,4.00
2022-10-23T14:55:40.182Z,4.90
2022-10-23T14:58:07.326Z,6.40
2022-10-23T15:00:33.870Z,6.60
2022-10-23T15:03:00.992Z,8.20
2022-10-23T15:05:27.809Z,8.40
2022-10-23T15:07:55.796Z,8.60
2022-10-23T15:10:22.300Z,7.10
2022-10-23T15:12:48.813Z,7.90
2022-10-23T15:15:15.434Z,7.90
2022-10-23T15:17:42.188Z,13.80
2022-10-23T15:20:09.457Z,14.60
2022-10-23T15:22:36.165Z,14.90
2022-10-23T15:25:02.886Z,12.40
2022-10-23T15:27:29.507Z,12.60
2022-10-23T15:29:56.074Z,12.10
2022-10-23T15:32:22.794Z,12.20
2022-10-23T15:34:51.401Z,10.30
2022-10-23T15:37:18.104Z,10.30
2022-10-23T15:39:44.819Z,8.10
2022-10-23T15:42:11.808Z,9.60
2022-10-23T15:44:39.250Z,9.30
2022-10-23T15:47:05.928Z,10.60
2022-10-23T15:49:32.771Z,17.80
2022-10-23T15:51:59.761Z,17.40
2022-10-23T15:54:29.278Z,13.70
2022-10-23T15:56:59.708Z,13.80
2022-10-23T15:59:27.496Z,14.10
2022-10-23T16:01:54.861Z,16.20
2022-10-23T16:04:21.852Z,20.30
2022-10-23T16:06:48.635Z,22.30
2022-10-23T16:09:15.537Z,25.20
2022-10-23T16:11:42.839Z,32.70
2022-10-23T16:14:15.279Z,29.60
2022-10-23T16:16:42.173Z,37.40
2022-10-23T16:19:09.721Z,41.20
2022-10-23T16:21:36.549Z,38.40
2022-10-23T16:24:06.686Z,34.60
2022-10-23T16:26:34.139Z,77.30
2022-10-23T16:29:03.501Z,40.90
2022-10-23T16:31:30.149Z,31.00
2022-10-23T16:33:58.862Z,28.80
2022-10-23T16:36:26.332Z,27.30
2022-10-23T16:39:17.971Z,23.80
2022-10-23T16:42:03.749Z,25.50
2022-10-23T16:44:41.194Z,23.30
2022-10-23T16:47:08.685Z,22.50
2022-10-23T16:49:35.310Z,21.40
2022-10-23T16:52:02.233Z,22.80
2022-10-23T16:54:29.135Z,23.90
2022-10-23T16:56:55.763Z,20.10
2022-10-23T16:59:22.358Z,18.50
2022-10-23T17:01:49.130Z,21.90
2022-10-23T17:04:16.093Z,22.80
2022-10-23T17:06:42.613Z,19.40
2022-10-23T17:09:09.304Z,22.20
2022-10-23T17:11:38.361Z,33.30
2022-10-23T17:14:12.774Z,36.10
2022-10-23T17:16:44.475Z,25.00
2022-10-23T17:19:20.559Z,21.30
2022-10-23T17:21:47.758Z,23.30
2022-10-23T17:24:14.569Z,24.20
2022-10-23T17:26:41.521Z,30.80
2022-10-23T17:29:09.910Z,35.80
2022-10-23T17:31:39.095Z,33.00
2022-10-23T17:34:16.635Z,34.50
2022-10-23T17:36:46.670Z,31.30
2022-10-23T17:39:16.813Z,31.60
2022-10-23T17:41:44.466Z,28.40
2022-10-23T17:44:11.671Z,27.30
2022-10-23T17:46:38.516Z,30.90
2022-10-23T17:49:05.142Z,30.60
2022-10-23T17:51:33.962Z,33.40
2022-10-23T17:54:03.863Z,29.40
2022-10-23T17:56:32.560Z,38.80
2022-10-23T18:01:29.392Z,36.70
2022-10-23T18:06:28.891Z,29.10
2022-10-23T18:08:56.494Z,26.60
2022-10-23T18:11:29.301Z,23.60
2022-10-23T18:13:57.263Z,29.00
2022-10-23T18:16:24.338Z,32.30
2022-10-23T18:18:51.950Z,34.00
2022-10-23T18:21:21.441Z,31.80
2022-10-23T18:23:48.154Z,31.40
2022-10-23T18:26:21.094Z,37.30
2022-10-23T18:28:49.882Z,32.00
2022-10-23T18:31:17.546Z,25.50
2022-10-23T18:33:44.944Z,26.40
2022-10-23T18:36:19.737Z,34.40
2022-10-23T18:38:47.538Z,30.30
2022-10-23T18:41:18.115Z,31.40
2022-10-23T18:43:45.011Z,28.50
2022-10-23T18:46:12.999Z,24.30
2022-10-23T18:48:40.188Z,29.90
2022-10-23T18:51:32.081Z,29.40
2022-10-23T18:54:05.575Z,24.70
2022-10-23T18:56:33.494Z,22.70
2022-10-23T18:59:02.457Z,25.20
2022-10-23T19:03:58.338Z,20.70
2022-10-23T19:06:25.751Z,24.70
2022-10-23T19:08:52.840Z,27.00
2022-10-23T19:11:22.269Z,28.20
2022-10-23T19:13:49.468Z,25.80
2022-10-23T19:16:30.173Z,25.10
2022-10-23T19:19:04.759Z,26.90
2022-10-23T19:21:35.922Z,26.00
2022-10-23T19:24:14.229Z,23.50
2022-10-23T19:26:41.851Z,20.70
2022-10-23T19:29:12.486Z,23.90
2022-10-23T19:31:42.503Z,20.60
2022-10-23T19:34:09.066Z,22.00
2022-10-23T19:36:35.686Z,18.00
2022-10-23T19:39:02.399Z,20.80
2022-10-23T19:41:30.454Z,18.10
2022-10-23T19:43:57.005Z,22.70
2022-10-23T19:46:23.585Z,18.90
2022-10-23T19:48:50.271Z,20.50
2022-10-23T19:51:16.929Z,21.90
2022-10-23T19:53:43.569Z,21.40
2022-10-23T19:56:11.659Z,18.40
2022-10-23T19:58:38.979Z,16.30
2022-10-23T20:01:09.515Z,17.40
2022-10-23T20:03:37.262Z,16.50
2022-10-23T20:06:03.901Z,15.80
2022-10-23T20:08:32.754Z,20.60
2022-10-23T20:11:02.637Z,20.60
2022-10-23T20:13:29.226Z,18.10
2022-10-23T20:15:55.735Z,13.10
2022-10-23T20:18:22.609Z,13.30
2022-10-23T20:20:49.222Z,14.10
2022-10-23T20:23:15.749Z,14.50
2022-10-23T20:25:42.688Z,14.70
2022-10-23T20:28:11.565Z,16.90
2022-10-23T20:30:41.907Z,18.90
2022-10-23T20:33:08.547Z,16.00
2022-10-23T20:35:39.996Z,11.40
2022-10-23T20:38:07.205Z,10.20
2022-10-23T20:40:34.175Z,10.60
2022-10-23T20:43:00.698Z,20.50
2022-10-23T20:45:27.348Z,15.50
2022-10-23T20:47:53.858Z,25.60
2022-10-23T20:50:23.137Z,15.60
2022-10-23T20:52:50.260Z,12.00
2022-10-23T20:55:17.501Z,10.40
2022-10-23T20:57:44.421Z,11.30
2022-10-23T21:00:11.557Z,11.70
2022-10-23T21:02:38.201Z,12.80
2022-10-23T21:05:05.262Z,13.70
2022-10-23T21:07:31.776Z,13.80
2022-10-23T21:09:58.763Z,15.30
2022-10-23T21:12:25.274Z,15.00
2022-10-23T21:14:52.889Z,20.60
2022-10-23T21:17:19.827Z,18.80
2022-10-23T21:19:46.896Z,17.00
2022-10-23T21:22:13.456Z,14.30
2022-10-23T21:24:40.238Z,11.00
2022-10-23T21:27:06.721Z,14.10
2022-10-23T21:29:33.618Z,16.60
2022-10-23T21:32:03.132Z,14.00
2022-10-23T21:34:31.056Z,10.30
2022-10-23T21:37:12.333Z,10.50
2022-10-23T21:39:41.466Z,8.30
2022-10-23T21:42:08.176Z,14.20
2022-10-23T21:44:34.951Z,14.40
2022-10-23T21:47:01.493Z,14.10
2022-10-23T21:49:28.026Z,13.10
2022-10-23T21:51:54.528Z,10.80
2022-10-23T21:54:21.145Z,14.90
2022-10-23T21:56:50.099Z,15.60
2022-10-23T22:01:46.371Z,14.90
2022-10-23T22:04:14.916Z,11.10
2022-10-23T22:06:42.201Z,10.80
2022-10-23T22:09:11.163Z,11.80
2022-10-23T22:11:38.162Z,15.00
2022-10-23T22:14:04.836Z,15.20
2022-10-23T22:16:31.469Z,16.30
2022-10-23T22:18:58.072Z,14.20
2022-10-23T22:21:27.590Z,12.60
2022-10-23T22:23:56.319Z,13.50
2022-10-23T22:26:26.428Z,13.40
2022-10-23T22:28:55.623Z,19.90
2022-10-23T22:31:25.932Z,14.90
2022-10-23T22:33:53.390Z,12.70
2022-10-23T22:36:20.997Z,14.40
2022-10-23T22:38:47.850Z,12.20
2022-10-23T22:41:15.156Z,11.70
2022-10-23T22:43:41.737Z,9.60
2022-10-23T22:46:11.787Z,9.40
2022-10-23T22:48:38.774Z,6.70
2022-10-23T22:51:09.041Z,9.20
2022-10-23T22:53:36.099Z,7.00
2022-10-23T22:56:08.192Z,6.50
2022-10-23T22:58:35.328Z,5.40
2022-10-23T23:01:15.291Z,5.10
2022-10-23T23:03:42.539Z,5.30
2022-10-23T23:06:09.853Z,6.30
2022-10-23T23:08:38.158Z,4.90
2022-10-23T23:11:06.381Z,5.60
2022-10-23T23:13:33.794Z,5.60
2022-10-23T23:16:01.805Z,5.50
2022-10-23T23:18:29.458Z,5.50
2022-10-23T23:21:05.337Z,5.10
2022-10-23T23:23:32.178Z,5.40
2022-10-23T23:25:58.709Z,6.80
2022-10-23T23:28:25.437Z,7.40
2022-10-23T23:31:02.727Z,8.00
2022-10-23T23:33:29.384Z,6.30
2022-10-23T23:35:56.109Z,6.90
2022-10-23T23:38:22.934Z,6.00
2022-10-23T23:40:51.961Z,7.10
2022-10-23T23:43:19.211Z,6.80
2022-10-23T23:45:46.046Z,6.90
2022-10-23T23:48:12.568Z,6.30
2022-10-23T23:50:39.042Z,5.90
2022-10-23T23:53:05.554Z,6.30
2022-10-23T23:55:32.208Z,5.90
2022-10-23T23:57:58.782Z,5.20
